Time,TemperatureF,DewpointF,PressureIn,WindDirection,WindDirectionDegrees,WindSpeedMPH,WindSpeedGustMPH,Humidity,HourlyPrecipIn,Conditions,Clouds,dailyrainin,SoftwareType,DateUTC
2013-07-03 00:11:00,63.0,63.0,-100.00,ENE,75,0.0,0.0,99,-99.99,,,-99.99,,2013-07-03 05:11:00,
2013-07-03 00:23:00,63.0,63.0,-100.00,ENE,75,0.0,0.0,99,-99.99,,,-99.99,,2013-07-03 05:23:00,
2013-07-03 00:47:00,62.0,62.0,-100.00,ESE,105,0.0,0.0,99,-99.99,,,-99.99,,2013-07-03 05:47:00,
2013-07-03 01:14:00,62.0,62.0,-100.00,East,100,0.0,0.0,99,-99.99,,,-99.99,,2013-07-03 06:14:00,
2013-07-03 01:24:00,62.0,62.0,-100.00,East,100,0.0,0.0,99,-99.99,,,-99.99,,2013-07-03 06:24:00,
2013-07-03 01:58:00,62.0,62.0,-100.00,West,265,0.0,0.0,99,-99.99,,,-99.99,,2013-07-03 06:58:00,
2013-07-03 02:00:00,61.0,61.0,-100.00,NNW,340,0.0,0.0,99,-99.99,,,-99.99,,2013-07-03 07:00:00,
2013-07-03 02:47:00,61.0,61.0,-100.00,NNW,340,0.0,0.0,99,-99.99,,,-99.99,,2013-07-03 07:47:00,
2013-07-03 03:47:00,61.0,61.0,-100.00,East,85,0.0,0.0,99,-99.99,,,-99.99,,2013-07-03 08:47:00,
2013-07-03 04:16:00,61.0,61.0,-100.00,NW,310,0.0,0.0,99,-99.99,,,-99.99,,2013-07-03 09:16:00,
2013-07-03 04:57:00,61.0,60.0,-100.00,ENE,70,0.0,0.0,99,-99.99,,,-99.99,,2013-07-03 09:57:00,
2013-07-03 05:28:00,60.0,60.0,-100.00,East,95,0.0,0.0,99,-99.99,,,-99.99,,2013-07-03 10:28:00,
2013-07-03 05:56:00,60.0,60.0,-100.00,WNW,285,0.0,0.0,99,-99.99,,,-99.99,,2013-07-03 10:56:00,
2013-07-03 06:25:00,60.0,60.0,-100.00,SE,135,0.0,0.0,99,-99.99,,,-99.99,,2013-07-03 11:25:00,
2013-07-03 06:43:00,60.0,60.0,-100.00,ENE,60,0.0,0.0,99,-99.99,,,-99.99,,2013-07-03 11:43:00,
2013-07-03 06:58:00,60.0,60.0,-100.00,ENE,60,0.0,0.0,99,-99.99,,,-99.99,,2013-07-03 11:58:00,
2013-07-03 07:16:00,61.0,60.0,-100.00,ESE,105,0.0,0.0,99,-99.99,,,-99.99,,2013-07-03 12:16:00,
2013-07-03 08:25:00,63.0,62.0,-100.00,SSE,160,0.0,0.0,99,-99.99,,,-99.99,,2013-07-03 13:25:00,
2013-07-03 08:47:00,65.0,64.0,-100.00,ESE,115,0.0,0.0,99,-99.99,,,-99.99,,2013-07-03 13:47:00,
2013-07-03 08:55:00,65.0,64.0,-100.00,ESE,115,0.0,0.0,99,-99.99,,,-99.99,,2013-07-03 13:55:00,
2013-07-03 09:26:00,68.0,62.0,-100.00,East,95,0.0,0.0,82,-99.99,,,-99.99,,2013-07-03 14:26:00,
2013-07-03 09:46:00,70.0,61.0,-100.00,SE,130,0.0,0.0,73,-99.99,,,-99.99,,2013-07-03 14:46:00,
2013-07-03 10:26:00,73.0,59.0,-100.00,East,85,0.0,0.0,63,-99.99,,,-99.99,,2013-07-03 15:26:00,
2013-07-03 10:57:00,78.0,57.0,-100.00,East,95,0.0,0.0,49,-99.99,,,-99.99,,2013-07-03 15:57:00,
2013-07-03 11:23:00,78.0,57.0,-100.00,SSW,200,0.0,0.0,49,-99.99,,,-99.99,,2013-07-03 16:23:00,
2013-07-03 11:46:00,78.0,57.0,-100.00,ENE,70,0.0,0.0,49,-99.99,,,-99.99,,2013-07-03 16:46:00,
2013-07-03 12:25:00,81.0,56.0,-100.00,NE,45,0.0,0.0,43,-99.99,,,-99.99,,2013-07-03 17:25:00,
2013-07-03 12:46:00,81.0,55.0,-100.00,SSE,155,0.0,0.0,41,-99.99,,,-99.99,,2013-07-03 17:46:00,
2013-07-03 12:56:00,81.0,55.0,-100.00,SSE,155,0.0,0.0,41,-99.99,,,-99.99,,2013-07-03 17:56:00,
2013-07-03 13:15:00,83.0,54.0,-100.00,North,10,0.0,0.0,38,-99.99,,,-99.99,,2013-07-03 18:15:00,
2013-07-03 13:25:00,83.0,54.0,-100.00,North,10,0.0,0.0,38,-99.99,,,-99.99,,2013-07-03 18:25:00,
2013-07-03 13:59:00,82.0,55.0,-100.00,WNW,290,0.0,0.0,40,-99.99,,,-99.99,,2013-07-03 18:59:00,
2013-07-03 14:29:00,82.0,56.0,-100.00,NE,35,0.0,0.0,40,-99.99,,,-99.99,,2013-07-03 19:29:00,
2013-07-03 14:57:00,84.0,57.0,-100.00,North,0,0.0,0.0,40,-99.99,,,-99.99,,2013-07-03 19:57:00,
2013-07-03 15:24:00,82.0,55.0,-100.00,ENE,70,0.0,0.0,40,-99.99,,,-99.99,,2013-07-03 20:24:00,
2013-07-03 16:13:00,82.0,56.0,-100.00,South,185,0.0,0.0,41,-99.99,,,-99.99,,2013-07-03 21:13:00,
2013-07-03 16:26:00,82.0,56.0,-100.00,South,185,0.0,0.0,41,-99.99,,,-99.99,,2013-07-03 21:26:00,
2013-07-03 16:55:00,81.0,57.0,-100.00,South,190,0.0,0.0,45,-99.99,,,-99.99,,2013-07-03 21:55:00,
2013-07-03 17:14:00,80.0,58.0,-100.00,SSE,165,0.0,0.0,46,-99.99,,,-99.99,,2013-07-03 22:14:00,
2013-07-03 17:26:00,80.0,58.0,-100.00,SSE,165,0.0,0.0,46,-99.99,,,-99.99,,2013-07-03 22:26:00,
2013-07-03 17:45:00,80.0,57.0,-100.00,SE,125,0.0,0.0,45,-99.99,,,-99.99,,2013-07-03 22:45:00,
2013-07-03 17:57:00,80.0,57.0,-100.00,SE,125,0.0,0.0,45,-99.99,,,-99.99,,2013-07-03 22:57:00,
2013-07-03 18:24:00,80.0,56.0,-100.00,East,80,0.0,0.0,45,-99.99,,,-99.99,,2013-07-03 23:24:00,
2013-07-03 18:44:00,80.0,57.0,-100.00,SE,145,0.0,0.0,46,-99.99,,,-99.99,,2013-07-03 23:44:00,
2013-07-03 18:56:00,80.0,57.0,-100.00,SE,145,0.0,0.0,46,-99.99,,,-99.99,,2013-07-03 23:56:00,
2013-07-03 19:36:00,78.0,59.0,-100.00,SE,140,0.0,0.0,52,-99.99,,,-99.99,,2013-07-04 00:36:00,
2013-07-03 19:57:00,77.0,61.0,-100.00,SE,145,0.0,0.0,58,-99.99,,,-99.99,,2013-07-04 00:57:00,
2013-07-03 20:23:00,76.0,62.0,-100.00,East,95,0.0,0.0,61,-99.99,,,-99.99,,2013-07-04 01:23:00,
2013-07-03 20:43:00,74.0,65.0,-100.00,East,95,0.0,0.0,73,-99.99,,,-99.99,,2013-07-04 01:43:00,
2013-07-03 21:47:00,70.0,68.0,-100.00,East,85,0.0,0.0,92,-99.99,,,-99.99,,2013-07-04 02:47:00,
2013-07-03 21:57:00,70.0,68.0,-100.00,East,85,0.0,0.0,92,-99.99,,,-99.99,,2013-07-04 02:57:00,
2013-07-03 22:14:00,69.0,68.0,-100.00,NE,55,0.0,0.0,96,-99.99,,,-99.99,,2013-07-04 03:14:00,
2013-07-03 22:27:00,69.0,68.0,-100.00,NE,55,0.0,0.0,96,-99.99,,,-99.99,,2013-07-04 03:27:00,
2013-07-03 22:57:00,68.0,67.0,-100.00,ENE,75,0.0,0.0,98,-99.99,,,-99.99,,2013-07-04 03:57:00,
2013-07-03 23:02:00,67.0,67.0,-100.00,NE,55,0.0,0.0,99,-99.99,,,-99.99,,2013-07-04 04:02:00,
2013-07-03 23:11:00,66.0,66.0,-100.00,East,100,0.0,0.0,99,-99.99,,,-99.99,,2013-07-04 04:11:00,
2013-07-03 23:22:00,66.0,66.0,-100.00,East,100,0.0,0.0,99,-99.99,,,-99.99,,2013-07-04 04:22:00,
2013-07-03 23:43:00,66.0,66.0,-100.00,East,80,0.0,0.0,99,-99.99,,,-99.99,,2013-07-04 04:43:00,
2013-07-03 23:52:00,66.0,66.0,-100.00,East,80,0.0,0.0,99,-99.99,,,-99.99,,2013-07-04 04:52:00,